Time;durP1;ratioP1;P1;durP2;ratioP2;P2;SDS_P1;SDS_P2;PMS_P1;PMS_P2;Temp;Humidity;BMP_temperature;BMP_pressure;BME280_temperature;BME280_humidity;BME280_pressure;Samples;Min_cycle;Max_cycle;Signal;HPM_P1;HPM_P2
2021/12/01 00:00:26;;;;;;;35.25;19.38;;;9.70;99.90;;;;;;5072361;28;20174;-71
2021/12/01 00:02:54;;;;;;;38.33;20.17;;;9.70;99.90;;;;;;5054448;28;20048;-72
2021/12/01 00:05:27;;;;;;;47.42;20.58;;;9.70;99.90;;;;;;5091510;28;20524;-71
2021/12/01 00:07:53;;;;;;;34.35;18.70;;;9.70;99.90;;;;;;5092178;28;20125;-71
2021/12/01 00:10:21;;;;;;;43.33;19.98;;;9.70;99.90;;;;;;5092352;28;20071;-71
2021/12/01 00:12:47;;;;;;;32.15;17.73;;;9.80;99.90;;;;;;5092130;28;20376;-71
2021/12/01 00:15:14;;;;;;;25.30;11.43;;;9.70;99.90;;;;;;5074735;28;20044;-72
2021/12/01 00:17:40;;;;;;;32.85;17.95;;;9.70;99.90;;;;;;5092348;28;20050;-71
2021/12/01 00:20:09;;;;;;;31.60;17.63;;;9.80;99.90;;;;;;5092595;28;20356;-71
2021/12/01 00:22:36;;;;;;;29.05;16.50;;;9.80;99.90;;;;;;5091900;28;20047;-72
2021/12/01 00:25:02;;;;;;;29.10;15.85;;;9.80;99.90;;;;;;5092226;28;20048;-72
2021/12/01 00:27:28;;;;;;;22.92;12.43;;;9.80;99.90;;;;;;5091911;28;20050;-71
2021/12/01 00:29:56;;;;;;;27.63;15.32;;;9.80;99.90;;;;;;5092359;28;20044;-70
2021/12/01 00:32:21;;;;;;;31.27;14.88;;;9.80;99.90;;;;;;5092407;28;20072;-71
2021/12/01 00:34:47;;;;;;;28.60;14.77;;;9.70;99.90;;;;;;5092508;28;20086;-72
2021/12/01 00:37:13;;;;;;;24.83;14.50;;;9.70;99.90;;;;;;5096169;28;20105;-72
2021/12/01 00:39:39;;;;;;;23.33;13.48;;;9.70;99.90;;;;;;5096123;28;20104;-70
2021/12/01 00:42:06;;;;;;;22.33;11.07;;;9.70;99.90;;;;;;5095833;28;20043;-71
2021/12/01 00:44:34;;;;;;;21.83;12.80;;;9.70;99.90;;;;;;5078011;28;20398;-72
2021/12/01 00:49:27;;;;;;;19.27;10.90;;;9.70;99.90;;;;;;5095920;28;20349;-71
2021/12/01 00:51:52;;;;;;;21.73;11.77;;;9.70;99.90;;;;;;5095465;28;20044;-71
2021/12/01 00:54:18;;;;;;;15.95;7.80;;;9.70;99.90;;;;;;5078005;28;20101;-72
2021/12/01 00:56:45;;;;;;;24.00;11.13;;;9.80;99.90;;;;;;5095758;28;20051;-72
2021/12/01 00:59:11;;;;;;;15.73;6.97;;;9.80;99.90;;;;;;5095536;28;20092;-71
2021/12/01 01:01:38;;;;;;;17.23;8.40;;;9.80;99.90;;;;;;5095505;28;20044;-71
2021/12/01 01:04:04;;;;;;;17.98;7.97;;;9.80;99.90;;;;;;5086729;28;20044;-71
2021/12/01 01:06:29;;;;;;;13.48;6.85;;;9.80;99.90;;;;;;5075539;28;20060;-72
2021/12/01 01:08:55;;;;;;;19.52;8.57;;;9.90;99.90;;;;;;5075081;28;20086;-71
2021/12/01 01:16:50;;;;;;;13.52;6.85;;;9.90;99.90;;;;;;5075088;28;20098;-71
2021/12/01 01:19:17;;;;;;;22.08;6.05;;;9.90;99.90;;;;;;5074674;28;20048;-72
2021/12/01 01:21:48;;;;;;;16.10;5.63;;;9.90;99.90;;;;;;5075037;28;20074;-72
2021/12/01 01:24:15;;;;;;;12.82;4.47;;;9.90;99.90;;;;;;5074930;28;20047;-71
2021/12/01 01:26:41;;;;;;;13.02;4.25;;;9.90;99.90;;;;;;5057423;28;20450;-71
2021/12/01 01:29:07;;;;;;;11.45;4.03;;;9.90;99.90;;;;;;5074914;28;20059;-73
2021/12/01 01:31:34;;;;;;;13.20;3.25;;;9.90;99.90;;;;;;5074993;28;20067;-71
2021/12/01 01:34:00;;;;;;;10.38;2.80;;;9.90;99.90;;;;;;5074747;28;20357;-71
2021/12/01 01:36:27;;;;;;;7.18;2.25;;;9.90;99.90;;;;;;5074758;28;20040;-73
2021/12/01 01:38:55;;;;;;;8.45;2.85;;;9.90;99.90;;;;;;5074714;28;20055;-72
2021/12/01 01:41:21;;;;;;;8.73;2.80;;;9.90;99.90;;;;;;5074828;28;20072;-71
2021/12/01 01:43:50;;;;;;;5.03;1.67;;;9.90;99.90;;;;;;5074532;28;20087;-71
2021/12/01 01:46:16;;;;;;;6.10;2.08;;;9.90;99.90;;;;;;5074408;28;20127;-71
2021/12/01 01:49:17;;;;;;;7.45;2.05;;;9.90;99.90;;;;;;5074372;28;20041;-71
2021/12/01 01:51:35;;;;;;;5.40;1.85;;;9.90;99.90;;;;;;5053524;28;20044;-72
2021/12/01 01:54:01;;;;;;;9.40;2.72;;;9.90;99.90;;;;;;5074412;28;20044;-72
2021/12/01 01:56:28;;;;;;;7.32;2.75;;;9.90;99.90;;;;;;5074288;28;20105;-71
2021/12/01 01:58:54;;;;;;;8.57;2.80;;;10.00;99.90;;;;;;5074116;28;20052;-72
2021/12/01 02:03:52;;;;;;;5.53;2.47;;;9.90;99.90;;;;;;5080951;28;20045;-72
2021/12/01 02:06:23;;;;;;;6.05;2.97;;;9.90;99.90;;;;;;5094583;28;20109;-71
2021/12/01 02:08:51;;;;;;;7.88;3.30;;;9.90;99.90;;;;;;5093772;28;20058;-71
2021/12/01 02:11:18;;;;;;;7.53;2.53;;;9.90;99.90;;;;;;5094254;28;20127;-72
2021/12/01 02:13:44;;;;;;;6.22;2.15;;;9.90;99.90;;;;;;5094238;28;20039;-71
2021/12/01 02:16:14;;;;;;;5.03;2.40;;;9.90;99.90;;;;;;5094255;28;20044;-71
2021/12/01 02:18:40;;;;;;;4.75;2.38;;;9.90;99.90;;;;;;5094305;28;20048;-70
2021/12/01 02:21:06;;;;;;;16.05;3.13;;;9.90;99.90;;;;;;5094237;28;20241;-71
2021/12/01 02:23:34;;;;;;;3.78;2.25;;;9.90;99.90;;;;;;5094005;28;20432;-70
2021/12/01 02:26:00;;;;;;;4.57;2.10;;;10.00;99.90;;;;;;5059777;28;20064;-70
2021/12/01 02:28:26;;;;;;;4.95;2.08;;;10.00;99.90;;;;;;5093916;28;20035;-70
2021/12/01 02:30:52;;;;;;;8.82;3.03;;;10.00;99.90;;;;;;5094030;28;20051;-71
2021/12/01 02:33:18;;;;;;;10.18;3.25;;;10.00;99.90;;;;;;5093844;28;20429;-71
2021/12/01 02:35:44;;;;;;;6.47;2.60;;;10.00;99.90;;;;;;5076204;28;20443;-71
2021/12/01 02:38:10;;;;;;;11.63;2.40;;;10.00;99.90;;;;;;5093682;28;20050;-72
2021/12/01 02:40:36;;;;;;;10.18;2.47;;;9.90;99.90;;;;;;5093552;28;20436;-72
2021/12/01 02:43:02;;;;;;;11.80;2.78;;;9.90;99.90;;;;;;5093457;28;20044;-71
2021/12/01 02:45:27;;;;;;;13.40;3.13;;;10.00;99.90;;;;;;5093706;28;20441;-71
2021/12/01 02:47:53;;;;;;;15.13;3.20;;;10.00;99.90;;;;;;5093647;28;20117;-71
2021/12/01 02:50:19;;;;;;;13.10;3.47;;;10.00;99.90;;;;;;5093600;28;20039;-71
2021/12/01 02:52:46;;;;;;;10.50;2.53;;;9.90;99.90;;;;;;5075657;28;20195;-71
2021/12/01 02:55:15;;;;;;;14.57;3.08;;;9.90;99.90;;;;;;5093350;28;20039;-71
2021/12/01 02:57:52;;;;;;;16.27;4.23;;;9.90;99.90;;;;;;5093036;28;20063;-71
2021/12/01 03:00:21;;;;;;;14.25;3.08;;;9.90;99.90;;;;;;5093373;28;20278;-70
2021/12/01 03:02:47;;;;;;;7.82;2.92;;;9.90;99.90;;;;;;5093383;28;20434;-71
2021/12/01 03:05:15;;;;;;;10.48;3.20;;;9.90;99.90;;;;;;5074810;28;20056;-71
2021/12/01 03:07:43;;;;;;;13.05;3.83;;;9.90;99.90;;;;;;5072686;28;20056;-72
2021/12/01 03:10:09;;;;;;;8.75;2.85;;;9.90;99.90;;;;;;5072810;28;20185;-71
2021/12/01 03:12:37;;;;;;;9.10;2.47;;;9.90;99.90;;;;;;5072581;28;20044;-71
2021/12/01 03:15:04;;;;;;;12.15;2.67;;;9.90;99.90;;;;;;5072856;28;20145;-71
2021/12/01 03:17:31;;;;;;;9.25;2.25;;;9.90;99.90;;;;;;5072936;28;20053;-71
2021/12/01 03:19:58;;;;;;;13.65;2.75;;;9.90;99.90;;;;;;5072926;28;20051;-70
2021/12/01 03:22:25;;;;;;;13.63;2.35;;;9.90;99.90;;;;;;5072673;28;20040;-71
2021/12/01 03:24:52;;;;;;;16.77;3.55;;;9.90;99.90;;;;;;5072700;28;20059;-71
2021/12/01 03:27:18;;;;;;;17.42;3.30;;;9.90;99.90;;;;;;5072810;28;20051;-71
2021/12/01 03:29:48;;;;;;;16.40;2.63;;;9.80;99.90;;;;;;5072796;28;20049;-70
2021/12/01 03:32:15;;;;;;;16.15;3.47;;;9.80;99.90;;;;;;5072692;28;20076;-71
2021/12/01 03:34:43;;;;;;;20.85;3.33;;;9.90;99.90;;;;;;5072369;28;20040;-71
2021/12/01 03:37:10;;;;;;;19.92;4.03;;;9.80;99.90;;;;;;5072550;28;20036;-71
2021/12/01 03:39:37;;;;;;;15.30;3.92;;;9.80;99.90;;;;;;5072505;28;20110;-71
2021/12/01 03:42:03;;;;;;;17.55;3.53;;;9.80;99.90;;;;;;5072475;28;20048;-70
2021/12/01 03:44:30;;;;;;;21.75;3.25;;;9.80;99.90;;;;;;5072440;28;20048;-70
2021/12/01 03:46:55;;;;;;;15.35;2.35;;;9.80;99.90;;;;;;5072389;28;20040;-70
2021/12/01 03:49:21;;;;;;;23.02;3.13;;;9.70;99.90;;;;;;5072259;28;20132;-71
2021/12/01 03:51:47;;;;;;;23.90;3.38;;;9.80;99.90;;;;;;5054780;28;20090;-70
2021/12/01 03:54:13;;;;;;;12.77;2.70;;;9.80;99.90;;;;;;5072303;28;20063;-72
2021/12/01 03:56:39;;;;;;;10.43;2.10;;;9.80;99.90;;;;;;5072480;28;20045;-71
2021/12/01 03:59:05;;;;;;;12.55;2.10;;;9.80;99.90;;;;;;5054893;28;20083;-70
2021/12/01 04:01:32;;;;;;;12.20;2.30;;;9.80;99.90;;;;;;5072393;28;20040;-70
2021/12/01 04:03:58;;;;;;;10.75;2.22;;;9.80;99.90;;;;;;5079897;28;20485;-71
2021/12/01 04:06:25;;;;;;;14.43;3.03;;;9.80;99.90;;;;;;5092564;28;20579;-71
2021/12/01 04:08:51;;;;;;;9.13;2.15;;;9.80;99.90;;;;;;5092207;28;20048;-70
2021/12/01 04:11:18;;;;;;;8.82;2.17;;;9.80;99.90;;;;;;5077329;28;20047;-71
2021/12/01 04:13:44;;;;;;;10.88;2.67;;;9.80;99.90;;;;;;5096214;28;20449;-70
2021/12/01 04:16:09;;;;;;;10.27;2.35;;;9.90;99.90;;;;;;5096364;28;20055;-70
2021/12/01 04:18:35;;;;;;;8.55;2.67;;;9.90;99.90;;;;;;5096494;28;20498;-71
2021/12/01 04:21:01;;;;;;;11.80;2.70;;;9.90;99.90;;;;;;5096225;28;20044;-70
2021/12/01 04:23:27;;;;;;;7.47;3.20;;;9.90;99.90;;;;;;5096396;28;20038;-71
2021/12/01 04:25:53;;;;;;;5.20;2.15;;;9.80;99.90;;;;;;5096352;28;20094;-71
2021/12/01 04:28:19;;;;;;;7.03;2.45;;;9.90;99.90;;;;;;5096447;28;20044;-70
2021/12/01 04:30:44;;;;;;;6.40;2.67;;;9.90;99.90;;;;;;5095750;28;20460;-72
2021/12/01 04:33:10;;;;;;;4.57;2.88;;;9.90;99.90;;;;;;5096214;28;20123;-72
2021/12/01 04:35:36;;;;;;;5.60;3.38;;;9.90;99.90;;;;;;5096177;28;20047;-72
2021/12/01 04:38:03;;;;;;;6.60;3.40;;;9.80;99.90;;;;;;5096165;28;20054;-71
2021/12/01 04:40:28;;;;;;;4.28;3.20;;;9.80;99.90;;;;;;5095934;28;20123;-70
2021/12/01 04:42:54;;;;;;;4.65;2.15;;;9.80;99.90;;;;;;5096066;28;20119;-70
2021/12/01 04:45:22;;;;;;;5.55;2.50;;;9.80;99.90;;;;;;5095874;28;20393;-71
2021/12/01 04:47:51;;;;;;;3.40;2.10;;;9.80;99.90;;;;;;5095925;28;20173;-71
2021/12/01 04:50:19;;;;;;;5.45;2.58;;;9.70;99.90;;;;;;5095613;28;20051;-72
2021/12/01 04:52:45;;;;;;;4.03;2.20;;;9.70;99.90;;;;;;5095698;28;20047;-72
2021/12/01 04:55:11;;;;;;;3.83;2.10;;;9.70;99.90;;;;;;5095811;28;20342;-71
2021/12/01 04:57:42;;;;;;;4.80;2.05;;;9.70;99.90;;;;;;5095819;28;20472;-71
2021/12/01 05:00:11;;;;;;;2.35;1.17;;;9.60;99.90;;;;;;5095503;28;20044;-71
2021/12/01 05:02:37;;;;;;;2.40;1.52;;;9.60;99.90;;;;;;5095579;28;20036;-71
2021/12/01 05:05:03;;;;;;;2.50;1.60;;;9.60;99.90;;;;;;5078266;28;20352;-71
2021/12/01 05:07:29;;;;;;;3.22;1.55;;;9.60;99.90;;;;;;5074755;28;20481;-71
2021/12/01 05:09:56;;;;;;;2.83;1.70;;;9.50;99.90;;;;;;5074120;28;20052;-72
2021/12/01 05:12:22;;;;;;;3.58;1.85;;;9.50;99.90;;;;;;5056571;28;20098;-72
2021/12/01 05:14:48;;;;;;;1.67;0.95;;;9.50;99.90;;;;;;5073670;28;20040;-70
2021/12/01 05:17:14;;;;;;;4.40;1.88;;;9.50;99.90;;;;;;5073784;28;20051;-72
2021/12/01 05:19:40;;;;;;;2.67;1.55;;;9.50;99.90;;;;;;5073950;28;20051;-71
2021/12/01 05:22:05;;;;;;;4.47;2.50;;;9.50;99.90;;;;;;5073458;28;20489;-72
2021/12/01 05:24:32;;;;;;;2.63;1.33;;;9.40;99.90;;;;;;5074012;28;20048;-72
2021/12/01 05:26:58;;;;;;;4.35;2.65;;;9.40;99.90;;;;;;5073169;28;20044;-70
2021/12/01 05:29:24;;;;;;;3.45;2.33;;;9.40;99.90;;;;;;5073703;28;20051;-71
2021/12/01 05:31:52;;;;;;;4.80;2.22;;;9.40;99.90;;;;;;5073701;28;20044;-71
2021/12/01 05:34:18;;;;;;;6.05;3.08;;;9.40;99.90;;;;;;5073790;28;20041;-70
2021/12/01 05:36:44;;;;;;;6.38;3.17;;;9.40;99.90;;;;;;5073738;28;20050;-71
2021/12/01 05:39:10;;;;;;;8.27;4.15;;;9.30;99.90;;;;;;5056137;28;20044;-71
2021/12/01 05:41:35;;;;;;;6.10;3.58;;;9.30;99.90;;;;;;5073554;28;20044;-71
2021/12/01 05:44:01;;;;;;;8.20;4.47;;;9.30;99.90;;;;;;5073419;28;20076;-71
2021/12/01 05:46:27;;;;;;;6.68;3.67;;;9.30;99.90;;;;;;5055575;28;20124;-71
2021/12/01 05:48:54;;;;;;;6.88;4.82;;;9.30;99.90;;;;;;5073598;28;20044;-71
2021/12/01 05:51:21;;;;;;;6.43;3.58;;;9.30;99.90;;;;;;5073341;28;20084;-71
2021/12/01 05:53:48;;;;;;;6.55;3.47;;;9.30;99.90;;;;;;5073019;28;20094;-71
2021/12/01 05:56:15;;;;;;;4.82;3.63;;;9.30;99.90;;;;;;5073198;28;20037;-71
2021/12/01 05:58:41;;;;;;;5.65;3.15;;;9.30;99.90;;;;;;5072993;28;20480;-70
2021/12/01 06:01:07;;;;;;;4.72;3.20;;;9.30;99.90;;;;;;5073142;28;20060;-71
2021/12/01 06:03:33;;;;;;;3.67;2.03;;;9.20;99.90;;;;;;5077443;28;20051;-72
2021/12/01 06:05:59;;;;;;;12.52;2.40;;;9.20;99.90;;;;;;5093390;28;20462;-72
2021/12/01 06:08:25;;;;;;;4.75;2.97;;;9.20;99.90;;;;;;5051662;28;1194782;-72
2021/12/01 06:10:51;;;;;;;5.97;3.38;;;9.20;99.90;;;;;;5094090;28;20048;-70
2021/12/01 06:13:19;;;;;;;6.13;2.53;;;9.20;99.90;;;;;;5094063;28;20408;-71
2021/12/01 06:15:49;;;;;;;3.63;2.22;;;9.20;99.90;;;;;;5094202;28;20040;-71
2021/12/01 06:18:16;;;;;;;3.85;2.78;;;9.20;99.90;;;;;;5076626;28;20051;-71
2021/12/01 06:20:42;;;;;;;3.38;2.20;;;9.10;99.90;;;;;;5094226;28;20364;-72
2021/12/01 06:23:08;;;;;;;3.60;2.45;;;9.10;99.90;;;;;;5094090;28;20040;-71
2021/12/01 06:25:34;;;;;;;6.28;3.55;;;9.10;99.90;;;;;;5076200;28;20043;-72
2021/12/01 06:28:00;;;;;;;4.68;3.10;;;9.10;99.90;;;;;;5093967;28;20048;-71
2021/12/01 06:30:31;;;;;;;3.42;2.25;;;9.10;99.90;;;;;;5093959;28;20047;-71
2021/12/01 06:32:56;;;;;;;4.53;2.83;;;9.10;99.90;;;;;;5093119;28;20044;-71
2021/12/01 06:35:23;;;;;;;4.28;3.08;;;9.10;99.90;;;;;;5093919;28;20101;-70
2021/12/01 06:37:50;;;;;;;4.30;2.70;;;9.10;99.90;;;;;;5093784;28;20357;-71
2021/12/01 06:40:16;;;;;;;5.13;3.50;;;9.10;99.90;;;;;;5076081;28;20150;-71
2021/12/01 06:42:43;;;;;;;5.40;3.20;;;9.00;99.90;;;;;;5093504;28;20349;-71
2021/12/01 06:45:11;;;;;;;6.40;4.18;;;9.00;99.90;;;;;;5093717;28;20058;-72
2021/12/01 06:47:36;;;;;;;7.55;4.22;;;9.00;99.90;;;;;;5093468;28;20044;-70
2021/12/01 06:50:04;;;;;;;6.93;4.32;;;9.00;99.90;;;;;;5093770;28;20055;-71
2021/12/01 06:52:30;;;;;;;5.03;3.70;;;9.00;99.90;;;;;;5093426;28;20127;-72
2021/12/01 06:54:57;;;;;;;4.85;3.65;;;9.00;99.90;;;;;;5093442;28;20036;-71
2021/12/01 06:57:24;;;;;;;4.22;2.38;;;9.00;99.90;;;;;;5093214;28;20077;-71
2021/12/01 06:59:49;;;;;;;5.65;3.38;;;9.00;99.90;;;;;;5093446;28;20039;-70
2021/12/01 07:02:17;;;;;;;6.57;3.63;;;9.00;99.90;;;;;;5075558;28;20074;-71
2021/12/01 07:04:44;;;;;;;4.57;2.90;;;9.00;99.90;;;;;;5079149;28;20048;-72
2021/12/01 07:07:10;;;;;;;5.63;3.90;;;9.10;99.90;;;;;;5055122;28;20054;-71
2021/12/01 07:09:36;;;;;;;5.90;4.20;;;9.10;99.90;;;;;;5072559;28;20087;-72
2021/12/01 07:12:02;;;;;;;6.68;4.53;;;9.10;99.90;;;;;;5072819;28;20048;-71
2021/12/01 07:14:28;;;;;;;6.72;4.40;;;9.10;99.90;;;;;;5055452;28;20123;-71
2021/12/01 07:16:54;;;;;;;9.50;5.60;;;9.10;99.90;;;;;;5072869;28;20044;-71
2021/12/01 07:19:20;;;;;;;6.95;4.65;;;9.10;99.90;;;;;;5072991;28;20036;-71
2021/12/01 07:21:46;;;;;;;9.02;4.93;;;9.10;99.90;;;;;;5072720;28;20036;-72
2021/12/01 07:24:12;;;;;;;6.03;4.18;;;9.20;99.90;;;;;;5072643;28;20051;-71
2021/12/01 07:26:38;;;;;;;10.10;5.50;;;9.20;99.90;;;;;;5072656;28;20044;-72
2021/12/01 07:29:04;;;;;;;7.38;5.00;;;9.20;99.90;;;;;;5072688;28;20476;-71
2021/12/01 07:31:30;;;;;;;9.55;5.20;;;9.20;99.90;;;;;;5072528;28;20442;-71
2021/12/01 07:33:56;;;;;;;6.72;3.65;;;9.30;99.90;;;;;;5072861;28;20044;-71
2021/12/01 07:36:22;;;;;;;6.47;4.68;;;9.30;99.90;;;;;;5072548;28;20121;-71
2021/12/01 07:38:50;;;;;;;7.82;4.88;;;9.30;99.90;;;;;;5072524;28;20040;-71
2021/12/01 07:41:17;;;;;;;5.93;4.18;;;9.30;99.90;;;;;;5072350;28;20055;-71
2021/12/01 07:43:43;;;;;;;6.32;4.03;;;9.30;99.90;;;;;;5072196;28;20454;-71
2021/12/01 07:46:09;;;;;;;7.50;4.55;;;9.30;99.90;;;;;;5072641;28;20119;-72
2021/12/01 07:48:36;;;;;;;7.30;4.85;;;9.30;99.90;;;;;;5072351;28;20040;-72
2021/12/01 07:51:03;;;;;;;8.75;5.47;;;9.30;99.90;;;;;;5072141;28;20076;-71
2021/12/01 07:53:29;;;;;;;6.80;4.43;;;9.30;99.90;;;;;;5072274;28;20076;-71
2021/12/01 07:55:55;;;;;;;6.22;4.38;;;9.40;99.90;;;;;;5072133;28;20124;-71
2021/12/01 07:58:20;;;;;;;7.05;4.60;;;9.40;99.90;;;;;;5072228;28;20032;-72
2021/12/01 08:00:46;;;;;;;8.57;5.18;;;9.40;99.90;;;;;;5072316;28;20036;-72
2021/12/01 08:03:12;;;;;;;6.45;4.25;;;9.40;99.90;;;;;;5073590;28;20044;-72
2021/12/01 08:05:38;;;;;;;8.00;4.10;;;9.40;99.90;;;;;;5092536;28;20086;-71
2021/12/01 08:08:05;;;;;;;9.32;5.60;;;9.40;99.90;;;;;;5092388;28;20051;-71
2021/12/01 08:10:33;;;;;;;10.15;4.70;;;9.30;99.90;;;;;;5092503;28;20090;-72
2021/12/01 08:13:00;;;;;;;9.23;3.08;;;9.30;99.90;;;;;;5092567;28;20047;-71
2021/12/01 08:15:27;;;;;;;3.85;1.50;;;9.30;99.90;;;;;;5092321;28;20036;-71
2021/12/01 08:17:54;;;;;;;6.65;2.72;;;9.30;99.90;;;;;;5092345;28;20473;-71
2021/12/01 08:20:21;;;;;;;9.20;2.17;;;9.30;99.90;;;;;;5092346;28;20051;-73
2021/12/01 08:22:47;;;;;;;10.77;1.90;;;9.40;99.90;;;;;;5092139;28;20036;-72
2021/12/01 08:25:15;;;;;;;11.18;3.65;;;9.40;99.90;;;;;;5092321;28;20406;-73
2021/12/01 08:27:42;;;;;;;7.53;2.58;;;9.30;99.90;;;;;;5092304;28;20059;-73
2021/12/01 08:30:09;;;;;;;15.30;3.20;;;9.20;99.90;;;;;;5092314;28;20051;-72
2021/12/01 08:32:35;;;;;;;8.98;3.03;;;9.20;99.90;;;;;;5092326;28;20044;-71
2021/12/01 08:35:01;;;;;;;7.85;2.72;;;9.20;99.90;;;;;;5074681;28;20044;-73
2021/12/01 08:37:27;;;;;;;11.18;2.20;;;9.20;99.90;;;;;;5092261;28;20044;-73
2021/12/01 08:39:53;;;;;;;9.40;2.45;;;9.40;99.90;;;;;;5074647;28;20052;-72
2021/12/01 08:42:21;;;;;;;8.15;2.53;;;9.40;99.90;;;;;;5091948;28;20047;-72
2021/12/01 08:44:48;;;;;;;7.03;1.83;;;9.30;99.90;;;;;;5092296;28;20036;-71
2021/12/01 08:47:20;;;;;;;7.55;1.52;;;9.70;99.90;;;;;;5092062;28;20572;-72
2021/12/01 08:49:47;;;;;;;7.00;1.60;;;10.10;99.90;;;;;;5092027;28;20047;-73
2021/12/01 08:52:13;;;;;;;7.50;1.33;;;10.50;99.90;;;;;;5074345;28;20055;-73
2021/12/01 08:54:39;;;;;;;7.20;1.38;;;10.50;99.90;;;;;;5092036;28;20039;-73
2021/12/01 08:57:06;;;;;;;8.18;1.83;;;10.40;99.90;;;;;;5094274;28;20115;-72
2021/12/01 08:59:32;;;;;;;8.05;1.83;;;10.30;99.90;;;;;;5078041;28;20043;-72
2021/12/01 09:02:00;;;;;;;17.98;2.67;;;10.10;99.90;;;;;;5095645;28;20703;-79
2021/12/01 09:04:27;;;;;;;8.68;1.45;;;10.20;99.90;;;;;;5065942;28;20040;-73
2021/12/01 09:06:53;;;;;;;10.68;1.63;;;10.00;99.90;;;;;;5075291;28;20419;-72
2021/12/01 09:09:19;;;;;;;7.38;1.20;;;9.80;99.90;;;;;;5057213;28;20485;-74
2021/12/01 09:11:50;;;;;;;10.30;1.70;;;9.70;99.90;;;;;;5057809;28;20055;-72
2021/12/01 09:14:17;;;;;;;7.95;2.17;;;9.60;99.90;;;;;;5075087;28;20101;-72
2021/12/01 09:16:45;;;;;;;12.82;1.90;;;9.40;99.90;;;;;;5075019;28;20064;-72
2021/12/01 09:19:11;;;;;;;9.98;1.77;;;9.30;99.90;;;;;;5074986;28;20060;-72
2021/12/01 09:21:37;;;;;;;7.13;2.58;;;9.20;99.90;;;;;;5075111;28;20036;-72
2021/12/01 09:24:03;;;;;;;10.40;2.05;;;9.10;99.90;;;;;;5074853;28;20452;-72
2021/12/01 09:26:30;;;;;;;10.35;1.77;;;9.00;99.90;;;;;;5075077;28;20401;-72
2021/12/01 09:28:56;;;;;;;11.23;1.92;;;8.90;99.90;;;;;;5074794;28;20044;-72
2021/12/01 09:31:22;;;;;;;17.60;1.88;;;8.90;99.90;;;;;;5074821;28;20102;-72
2021/12/01 09:33:47;;;;;;;11.15;1.40;;;8.90;99.90;;;;;;5074839;28;20500;-72
2021/12/01 09:36:14;;;;;;;14.18;3.55;;;8.90;99.90;;;;;;5074853;28;20119;-72
2021/12/01 09:38:40;;;;;;;9.73;1.90;;;8.90;99.90;;;;;;5074762;28;20102;-73
2021/12/01 09:41:06;;;;;;;12.00;1.75;;;9.00;99.90;;;;;;5074688;28;20490;-77
2021/12/01 09:43:32;;;;;;;11.25;1.75;;;9.10;99.90;;;;;;5056739;28;20100;-78
2021/12/01 09:46:04;;;;;;;9.00;2.30;;;9.10;99.90;;;;;;5057074;28;20044;-77
2021/12/01 09:48:31;;;;;;;13.68;1.75;;;9.10;99.90;;;;;;5056972;28;20458;-72
2021/12/01 09:50:57;;;;;;;14.93;2.63;;;9.00;99.90;;;;;;5057073;28;20513;-71
2021/12/01 09:53:23;;;;;;;8.55;2.95;;;9.10;99.90;;;;;;5073982;28;20053;-72
2021/12/01 09:55:49;;;;;;;8.88;1.88;;;9.10;99.90;;;;;;5074586;28;20048;-72
2021/12/01 09:58:22;;;;;;;9.10;1.90;;;9.20;99.90;;;;;;5074360;28;20101;-73
2021/12/01 10:00:55;;;;;;;11.25;1.88;;;9.20;99.90;;;;;;5074124;28;20040;-74
2021/12/01 10:03:21;;;;;;;14.20;2.53;;;9.30;99.90;;;;;;5076670;28;20396;-72
2021/12/01 10:06:04;;;;;;;12.43;2.47;;;9.20;99.90;;;;;;5094409;28;20461;-74
2021/12/01 10:08:39;;;;;;;13.88;2.60;;;9.20;99.90;;;;;;5093129;28;20060;-73
2021/12/01 10:11:15;;;;;;;14.65;2.53;;;9.20;99.90;;;;;;5094437;28;20028;-74
2021/12/01 10:13:55;;;;;;;12.68;2.28;;;9.10;99.90;;;;;;5094143;28;20460;-74
2021/12/01 10:16:22;;;;;;;9.63;2.08;;;9.30;99.90;;;;;;5094360;28;20036;-73
2021/12/01 10:18:49;;;;;;;16.50;3.25;;;9.30;99.90;;;;;;5094224;28;20349;-73
2021/12/01 10:21:35;;;;;;;15.70;2.28;;;9.30;99.90;;;;;;5076353;28;20131;-73
2021/12/01 10:24:08;;;;;;;13.75;2.38;;;9.20;99.90;;;;;;5076010;28;20445;-73
2021/12/01 10:26:38;;;;;;;11.02;2.10;;;9.20;99.90;;;;;;5093754;28;20048;-72
2021/12/01 10:29:11;;;;;;;13.40;2.57;;;9.20;99.90;;;;;;5093909;28;20506;-74
2021/12/01 10:31:42;;;;;;;10.48;2.13;;;9.20;99.90;;;;;;5075825;28;20405;-73
2021/12/01 10:34:32;;;;;;;16.33;2.75;;;9.20;99.90;;;;;;5093739;28;20040;-79
2021/12/01 10:40:09;;;;;;;9.77;1.95;;;9.20;99.90;;;;;;5093779;28;20039;-72
2021/12/01 10:42:55;;;;;;;10.85;2.30;;;9.20;99.90;;;;;;5093708;28;20035;-71
2021/12/01 10:45:25;;;;;;;10.77;2.33;;;9.10;99.90;;;;;;5093610;28;20094;-71
2021/12/01 10:47:52;;;;;;;11.13;2.85;;;9.10;99.90;;;;;;5093749;28;20140;-73
2021/12/01 10:50:21;;;;;;;14.88;2.88;;;9.00;99.90;;;;;;5093574;28;20518;-71
2021/12/01 10:52:51;;;;;;;14.32;2.95;;;9.00;99.90;;;;;;5093526;28;20509;-73
2021/12/01 10:55:18;;;;;;;13.53;3.17;;;9.00;99.90;;;;;;5093256;28;20319;-73
2021/12/01 10:57:49;;;;;;;16.60;5.93;;;9.00;99.90;;;;;;5093534;28;20365;-72
2021/12/01 11:00:20;;;;;;;17.48;3.40;;;9.00;99.90;;;;;;5093408;28;20059;-75
2021/12/01 11:02:46;;;;;;;16.98;3.80;;;9.00;99.90;;;;;;5093504;28;20409;-71
2021/12/01 11:05:26;;;;;;;21.25;4.07;;;8.90;99.90;;;;;;5057267;28;20366;-71
2021/12/01 11:07:52;;;;;;;16.40;3.53;;;8.90;99.90;;;;;;5094595;28;20043;-71
2021/12/01 11:10:25;;;;;;;15.23;3.53;;;8.90;99.90;;;;;;5113534;28;20096;-71
2021/12/01 11:12:58;;;;;;;24.40;3.60;;;8.90;99.90;;;;;;5095320;28;20051;-70
2021/12/01 11:15:36;;;;;;;16.55;3.00;;;8.80;99.90;;;;;;5091539;28;20096;-72
2021/12/01 11:18:04;;;;;;;17.05;3.88;;;8.90;99.90;;;;;;5108830;28;20125;-72
2021/12/01 11:20:41;;;;;;;14.10;3.25;;;8.80;99.90;;;;;;5091352;28;20044;-72
2021/12/01 11:23:11;;;;;;;18.25;3.58;;;8.90;99.90;;;;;;5092899;28;20387;-72
2021/12/01 11:25:39;;;;;;;21.83;3.53;;;8.90;99.90;;;;;;5092126;28;20449;-71
2021/12/01 11:28:12;;;;;;;18.50;3.65;;;8.90;99.90;;;;;;5092584;28;20130;-71
2021/12/01 11:30:40;;;;;;;22.67;4.28;;;8.80;99.90;;;;;;5100669;28;20399;-72
2021/12/01 11:33:07;;;;;;;18.70;3.30;;;8.80;99.90;;;;;;5113048;28;20116;-71
2021/12/01 11:35:32;;;;;;;23.85;4.50;;;8.80;99.90;;;;;;5095170;28;20071;-71
2021/12/01 11:37:58;;;;;;;19.70;3.45;;;8.70;99.90;;;;;;5112979;28;20094;-72
2021/12/01 11:40:29;;;;;;;20.17;3.72;;;8.60;99.90;;;;;;5112752;28;20360;-71
2021/12/01 11:42:55;;;;;;;;;;;8.50;99.90;;;;;;5113781;28;20039;-70
2021/12/01 11:45:20;;;;;;;23.25;3.63;;;8.40;99.90;;;;;;5112965;28;20015;-71
2021/12/01 11:47:47;;;;;;;16.67;3.63;;;8.30;99.90;;;;;;5095334;28;20448;-71
2021/12/01 11:50:26;;;;;;;22.20;4.38;;;8.30;99.90;;;;;;5112792;28;20368;-72
2021/12/01 11:53:15;;;;;;;21.48;3.75;;;8.40;99.90;;;;;;5113164;28;20105;-71
2021/12/01 11:55:56;;;;;;;22.65;5.20;;;8.40;99.90;;;;;;5112915;28;20039;-70
2021/12/01 11:58:40;;;;;;;19.45;4.22;;;8.40;99.90;;;;;;5112828;28;20482;-71
2021/12/01 12:01:21;;;;;;;18.60;3.97;;;8.50;99.90;;;;;;5112929;28;20043;-71
2021/12/01 12:03:53;;;;;;;17.90;3.17;;;8.50;99.90;;;;;;5106384;28;20048;-70
2021/12/01 12:06:23;;;;;;;20.75;3.90;;;8.60;99.90;;;;;;5092388;28;20044;-71
2021/12/01 12:09:06;;;;;;;25.10;3.63;;;8.70;99.90;;;;;;5092219;28;20460;-70
2021/12/01 12:11:32;;;;;;;20.88;3.63;;;8.90;99.90;;;;;;5092501;28;20048;-70
2021/12/01 12:14:11;;;;;;;17.58;5.00;;;9.00;99.90;;;;;;5092472;28;20128;-71
2021/12/01 12:16:38;;;;;;;15.95;3.83;;;9.00;99.90;;;;;;5092315;28;20127;-71
2021/12/01 12:19:04;;;;;;;15.80;3.45;;;8.90;99.90;;;;;;5092553;28;20105;-70
2021/12/01 12:21:51;;;;;;;25.02;5.10;;;8.70;99.90;;;;;;5092387;28;20109;-71
2021/12/01 12:24:24;;;;;;;16.02;3.92;;;8.70;99.90;;;;;;5092217;28;20040;-71
2021/12/01 12:26:58;;;;;;;15.57;2.55;;;8.60;99.90;;;;;;5090883;28;20123;-71
2021/12/01 12:29:26;;;;;;;15.75;3.30;;;8.60;99.90;;;;;;5091860;28;20393;-72
2021/12/01 12:32:13;;;;;;;14.95;2.83;;;8.60;99.90;;;;;;5094233;28;20117;-72
2021/12/01 12:34:51;;;;;;;13.15;3.00;;;8.50;99.90;;;;;;5096102;28;20078;-72
2021/12/01 12:37:23;;;;;;;14.05;2.00;;;8.50;99.90;;;;;;5095986;28;20044;-73
2021/12/01 12:39:49;;;;;;;16.98;2.72;;;8.50;99.90;;;;;;5096134;28;20044;-72
2021/12/01 12:42:15;;;;;;;18.77;2.55;;;8.50;99.90;;;;;;5095773;28;20480;-72
2021/12/01 12:44:43;;;;;;;17.20;5.38;;;8.50;99.90;;;;;;5096185;28;20082;-71
2021/12/01 12:47:15;;;;;;;16.30;4.95;;;8.60;99.90;;;;;;5078078;28;20063;-72
2021/12/01 12:49:50;;;;;;;12.82;2.50;;;8.50;99.90;;;;;;5095595;28;20119;-72
2021/12/01 12:52:25;;;;;;;13.60;2.47;;;8.50;99.90;;;;;;5075629;28;20048;-73
2021/12/01 12:55:01;;;;;;;11.95;2.05;;;8.50;99.90;;;;;;5075447;28;20056;-72
2021/12/01 12:57:54;;;;;;;14.07;2.30;;;8.40;99.90;;;;;;5075361;28;20051;-72
2021/12/01 13:00:42;;;;;;;10.48;1.58;;;8.40;99.90;;;;;;5075427;28;20051;-75
2021/12/01 13:03:19;;;;;;;9.27;1.83;;;8.40;99.90;;;;;;5076234;28;20041;-71
2021/12/01 13:05:45;;;;;;;10.15;2.97;;;8.30;99.90;;;;;;5077852;28;20457;-72
2021/12/01 13:08:36;;;;;;;13.23;2.70;;;8.30;99.90;;;;;;5094751;28;20044;-75